sensor_id;sensor_type;location;lat;lon;timestamp;temperature;humidity
27890;DHT22;15238;49.082;9.102;2022-11-02T00:01:47;8.00;99.90
27890;DHT22;15238;49.082;9.102;2022-11-02T00:03:47;8.10;99.90
27890;DHT22;15238;49.082;9.102;2022-11-02T00:05:48;8.10;99.90
27890;DHT22;15238;49.082;9.102;2022-11-02T00:07:50;8.00;99.90
27890;DHT22;15238;49.082;9.102;2022-11-02T00:09:50;8.00;99.90
27890;DHT22;15238;49.082;9.102;2022-11-02T00:11:51;8.00;99.90
27890;DHT22;15238;49.082;9.102;2022-11-02T00:13:52;8.00;99.90
27890;DHT22;15238;49.082;9.102;2022-11-02T00:15:52;8.00;99.90
27890;DHT22;15238;49.082;9.102;2022-11-02T00:17:55;8.00;99.90
27890;DHT22;15238;49.082;9.102;2022-11-02T00:19:58;7.90;99.90
27890;DHT22;15238;49.082;9.102;2022-11-02T00:21:58;8.00;99.90
27890;DHT22;15238;49.082;9.102;2022-11-02T00:24:01;8.00;99.90
27890;DHT22;15238;49.082;9.102;2022-11-02T00:26:02;7.90;99.90
27890;DHT22;15238;49.082;9.102;2022-11-02T00:28:03;7.90;99.90
27890;DHT22;15238;49.082;9.102;2022-11-02T00:30:04;7.90;99.90
27890;DHT22;15238;49.082;9.102;2022-11-02T00:32:05;7.90;99.90
27890;DHT22;15238;49.082;9.102;2022-11-02T00:34:05;7.90;99.90
27890;DHT22;15238;49.082;9.102;2022-11-02T00:36:06;8.00;99.90
27890;DHT22;15238;49.082;9.102;2022-11-02T00:38:07;8.10;99.90
27890;DHT22;15238;49.082;9.102;2022-11-02T00:40:08;8.10;99.90
27890;DHT22;15238;49.082;9.102;2022-11-02T00:42:08;8.10;99.90
27890;DHT22;15238;49.082;9.102;2022-11-02T00:44:09;8.20;99.90
27890;DHT22;15238;49.082;9.102;2022-11-02T00:46:09;8.20;99.90
27890;DHT22;15238;49.082;9.102;2022-11-02T00:48:10;8.20;99.90
27890;DHT22;15238;49.082;9.102;2022-11-02T00:50:11;8.20;99.90
27890;DHT22;15238;49.082;9.102;2022-11-02T00:52:11;8.30;99.90
27890;DHT22;15238;49.082;9.102;2022-11-02T00:54:12;8.30;99.90
27890;DHT22;15238;49.082;9.102;2022-11-02T00:56:12;8.30;99.90
27890;DHT22;15238;49.082;9.102;2022-11-02T00:58:13;8.30;99.90
27890;DHT22;15238;49.082;9.102;2022-11-02T01:00:14;8.40;99.90
27890;DHT22;15238;49.082;9.102;2022-11-02T01:02:16;8.50;99.90
27890;DHT22;15238;49.082;9.102;2022-11-02T01:04:17;8.50;99.90
27890;DHT22;15238;49.082;9.102;2022-11-02T01:06:17;8.50;99.90
27890;DHT22;15238;49.082;9.102;2022-11-02T01:08:18;8.60;99.90
27890;DHT22;15238;49.082;9.102;2022-11-02T01:10:18;8.70;99.90
27890;DHT22;15238;49.082;9.102;2022-11-02T01:12:19;8.70;99.90
27890;DHT22;15238;49.082;9.102;2022-11-02T01:14:20;8.80;99.90
27890;DHT22;15238;49.082;9.102;2022-11-02T01:16:21;8.70;99.90
27890;DHT22;15238;49.082;9.102;2022-11-02T01:18:22;8.80;99.90
27890;DHT22;15238;49.082;9.102;2022-11-02T01:20:22;8.80;99.90
27890;DHT22;15238;49.082;9.102;2022-11-02T01:22:23;8.80;99.90
27890;DHT22;15238;49.082;9.102;2022-11-02T01:24:23;8.80;99.90
27890;DHT22;15238;49.082;9.102;2022-11-02T01:26:24;8.80;99.90
27890;DHT22;15238;49.082;9.102;2022-11-02T01:28:24;8.90;99.90
27890;DHT22;15238;49.082;9.102;2022-11-02T01:30:25;8.90;99.90
27890;DHT22;15238;49.082;9.102;2022-11-02T01:32:28;8.90;99.90
27890;DHT22;15238;49.082;9.102;2022-11-02T01:34:29;9.00;99.90
27890;DHT22;15238;49.082;9.102;2022-11-02T01:36:29;9.00;99.90
27890;DHT22;15238;49.082;9.102;2022-11-02T01:38:31;9.00;99.90
27890;DHT22;15238;49.082;9.102;2022-11-02T01:40:36;9.00;99.90
27890;DHT22;15238;49.082;9.102;2022-11-02T01:42:38;9.10;99.90
27890;DHT22;15238;49.082;9.102;2022-11-02T01:44:38;9.10;99.90
27890;DHT22;15238;49.082;9.102;2022-11-02T01:46:43;9.10;99.90
27890;DHT22;15238;49.082;9.102;2022-11-02T01:48:46;9.10;99.90
27890;DHT22;15238;49.082;9.102;2022-11-02T01:50:48;9.10;99.90
27890;DHT22;15238;49.082;9.102;2022-11-02T01:52:49;9.10;99.90
27890;DHT22;15238;49.082;9.102;2022-11-02T01:54:56;9.10;99.90
27890;DHT22;15238;49.082;9.102;2022-11-02T01:57:05;9.00;99.90
27890;DHT22;15238;49.082;9.102;2022-11-02T01:59:10;9.00;99.90
27890;DHT22;15238;49.082;9.102;2022-11-02T02:01:10;9.00;99.90
27890;DHT22;15238;49.082;9.102;2022-11-02T02:03:16;9.00;99.90
27890;DHT22;15238;49.082;9.102;2022-11-02T02:05:18;9.00;99.90
27890;DHT22;15238;49.082;9.102;2022-11-02T02:07:21;9.00;99.90
27890;DHT22;15238;49.082;9.102;2022-11-02T02:09:23;9.00;99.90
27890;DHT22;15238;49.082;9.102;2022-11-02T02:11:25;9.00;99.90
27890;DHT22;15238;49.082;9.102;2022-11-02T02:13:27;9.00;99.90
27890;DHT22;15238;49.082;9.102;2022-11-02T02:15:40;9.00;99.90
27890;DHT22;15238;49.082;9.102;2022-11-02T02:18:06;9.00;99.90
27890;DHT22;15238;49.082;9.102;2022-11-02T02:20:21;9.00;99.90
27890;DHT22;15238;49.082;9.102;2022-11-02T02:22:55;9.10;99.90
27890;DHT22;15238;49.082;9.102;2022-11-02T02:25:22;9.00;99.90
27890;DHT22;15238;49.082;9.102;2022-11-02T02:32:13;9.00;99.90
27890;DHT22;15238;49.082;9.102;2022-11-02T02:34:28;9.00;99.90
27890;DHT22;15238;49.082;9.102;2022-11-02T02:36:35;9.00;99.90
27890;DHT22;15238;49.082;9.102;2022-11-02T02:38:55;9.00;99.90
27890;DHT22;15238;49.082;9.102;2022-11-02T02:41:18;9.00;99.90
27890;DHT22;15238;49.082;9.102;2022-11-02T02:43:26;9.00;99.90
27890;DHT22;15238;49.082;9.102;2022-11-02T02:45:34;9.00;99.90
27890;DHT22;15238;49.082;9.102;2022-11-02T02:47:41;9.00;99.90
27890;DHT22;15238;49.082;9.102;2022-11-02T02:49:51;9.10;99.90
27890;DHT22;15238;49.082;9.102;2022-11-02T02:51:55;9.10;99.90
27890;DHT22;15238;49.082;9.102;2022-11-02T02:53:59;9.10;99.90
27890;DHT22;15238;49.082;9.102;2022-11-02T02:56:02;9.10;99.90
27890;DHT22;15238;49.082;9.102;2022-11-02T02:58:06;9.10;99.90
27890;DHT22;15238;49.082;9.102;2022-11-02T03:00:16;9.10;99.90
27890;DHT22;15238;49.082;9.102;2022-11-02T03:02:20;9.10;99.90
27890;DHT22;15238;49.082;9.102;2022-11-02T03:04:23;9.10;99.90
27890;DHT22;15238;49.082;9.102;2022-11-02T03:06:27;9.10;99.90
27890;DHT22;15238;49.082;9.102;2022-11-02T03:08:29;9.10;99.90
27890;DHT22;15238;49.082;9.102;2022-11-02T03:10:34;9.10;99.90
27890;DHT22;15238;49.082;9.102;2022-11-02T03:13:09;9.10;99.90
27890;DHT22;15238;49.082;9.102;2022-11-02T03:15:23;9.00;99.90
27890;DHT22;15238;49.082;9.102;2022-11-02T03:17:31;9.00;99.90
27890;DHT22;15238;49.082;9.102;2022-11-02T03:19:48;9.00;99.90
27890;DHT22;15238;49.082;9.102;2022-11-02T03:22:03;9.00;99.90
27890;DHT22;15238;49.082;9.102;2022-11-02T03:29:03;9.10;99.90
27890;DHT22;15238;49.082;9.102;2022-11-02T03:31:12;9.10;99.90
27890;DHT22;15238;49.082;9.102;2022-11-02T03:33:37;9.20;99.90
27890;DHT22;15238;49.082;9.102;2022-11-02T03:35:51;9.20;99.90
27890;DHT22;15238;49.082;9.102;2022-11-02T03:38:15;9.20;99.90
27890;DHT22;15238;49.082;9.102;2022-11-02T03:40:33;9.20;99.90
27890;DHT22;15238;49.082;9.102;2022-11-02T03:42:35;9.20;99.90
27890;DHT22;15238;49.082;9.102;2022-11-02T03:44:38;9.20;99.90
27890;DHT22;15238;49.082;9.102;2022-11-02T03:46:40;9.20;99.90
27890;DHT22;15238;49.082;9.102;2022-11-02T03:48:45;9.20;99.90
27890;DHT22;15238;49.082;9.102;2022-11-02T03:50:51;9.20;99.90
27890;DHT22;15238;49.082;9.102;2022-11-02T03:52:56;9.20;99.90
27890;DHT22;15238;49.082;9.102;2022-11-02T03:55:10;9.20;99.90
27890;DHT22;15238;49.082;9.102;2022-11-02T03:57:18;9.20;99.90
27890;DHT22;15238;49.082;9.102;2022-11-02T03:59:20;9.20;99.90
27890;DHT22;15238;49.082;9.102;2022-11-02T04:01:21;9.20;99.90
27890;DHT22;15238;49.082;9.102;2022-11-02T04:03:22;9.10;99.90
27890;DHT22;15238;49.082;9.102;2022-11-02T04:05:28;9.20;99.90
27890;DHT22;15238;49.082;9.102;2022-11-02T04:07:32;9.20;99.90
27890;DHT22;15238;49.082;9.102;2022-11-02T04:09:53;9.10;99.90
27890;DHT22;15238;49.082;9.102;2022-11-02T04:11:54;9.10;99.90
27890;DHT22;15238;49.082;9.102;2022-11-02T04:14:13;9.10;99.90
27890;DHT22;15238;49.082;9.102;2022-11-02T04:16:31;9.00;99.90
27890;DHT22;15238;49.082;9.102;2022-11-02T04:18:32;9.00;99.90
27890;DHT22;15238;49.082;9.102;2022-11-02T04:20:51;8.90;99.90
27890;DHT22;15238;49.082;9.102;2022-11-02T04:22:52;8.90;99.90
27890;DHT22;15238;49.082;9.102;2022-11-02T04:25:13;8.80;99.90
27890;DHT22;15238;49.082;9.102;2022-11-02T04:27:17;8.80;99.90
27890;DHT22;15238;49.082;9.102;2022-11-02T04:29:18;8.80;99.90
27890;DHT22;15238;49.082;9.102;2022-11-02T04:31:18;8.80;99.90
27890;DHT22;15238;49.082;9.102;2022-11-02T04:33:19;8.80;99.90
27890;DHT22;15238;49.082;9.102;2022-11-02T04:35:32;8.80;99.90
27890;DHT22;15238;49.082;9.102;2022-11-02T04:37:42;8.80;99.90
27890;DHT22;15238;49.082;9.102;2022-11-02T04:40:02;8.70;99.90
27890;DHT22;15238;49.082;9.102;2022-11-02T04:42:02;8.70;99.90
27890;DHT22;15238;49.082;9.102;2022-11-02T04:44:04;8.70;99.90
27890;DHT22;15238;49.082;9.102;2022-11-02T04:46:04;8.70;99.90
27890;DHT22;15238;49.082;9.102;2022-11-02T04:48:07;8.60;99.90
27890;DHT22;15238;49.082;9.102;2022-11-02T04:52:14;8.60;99.90
27890;DHT22;15238;49.082;9.102;2022-11-02T04:54:15;8.70;99.90
27890;DHT22;15238;49.082;9.102;2022-11-02T04:56:15;8.70;99.90
27890;DHT22;15238;49.082;9.102;2022-11-02T04:58:16;8.80;99.90
27890;DHT22;15238;49.082;9.102;2022-11-02T05:00:17;8.80;99.90
27890;DHT22;15238;49.082;9.102;2022-11-02T05:02:18;8.80;99.90
27890;DHT22;15238;49.082;9.102;2022-11-02T05:04:18;8.80;99.90
27890;DHT22;15238;49.082;9.102;2022-11-02T05:06:20;8.90;99.90
27890;DHT22;15238;49.082;9.102;2022-11-02T05:08:21;8.90;99.90
27890;DHT22;15238;49.082;9.102;2022-11-02T05:10:22;8.90;99.90
27890;DHT22;15238;49.082;9.102;2022-11-02T05:12:22;8.90;99.90
27890;DHT22;15238;49.082;9.102;2022-11-02T05:14:23;8.90;99.90
27890;DHT22;15238;49.082;9.102;2022-11-02T05:16:23;9.00;99.90
27890;DHT22;15238;49.082;9.102;2022-11-02T05:18:25;8.90;99.90
27890;DHT22;15238;49.082;9.102;2022-11-02T05:20:26;9.00;99.90
27890;DHT22;15238;49.082;9.102;2022-11-02T05:22:27;9.00;99.90
27890;DHT22;15238;49.082;9.102;2022-11-02T05:24:27;9.00;99.90
27890;DHT22;15238;49.082;9.102;2022-11-02T05:26:28;9.10;99.90
27890;DHT22;15238;49.082;9.102;2022-11-02T05:28:29;9.10;99.90
27890;DHT22;15238;49.082;9.102;2022-11-02T05:30:30;9.20;99.90
27890;DHT22;15238;49.082;9.102;2022-11-02T05:32:31;9.30;99.90
27890;DHT22;15238;49.082;9.102;2022-11-02T05:34:31;9.30;99.90
27890;DHT22;15238;49.082;9.102;2022-11-02T05:36:32;9.40;99.90
27890;DHT22;15238;49.082;9.102;2022-11-02T05:38:32;9.50;99.90
27890;DHT22;15238;49.082;9.102;2022-11-02T05:40:33;9.50;99.90
27890;DHT22;15238;49.082;9.102;2022-11-02T05:42:36;9.60;99.90
27890;DHT22;15238;49.082;9.102;2022-11-02T05:44:37;9.70;99.90
27890;DHT22;15238;49.082;9.102;2022-11-02T05:46:37;9.70;99.90
27890;DHT22;15238;49.082;9.102;2022-11-02T05:48:38;9.70;99.90
27890;DHT22;15238;49.082;9.102;2022-11-02T05:50:38;9.80;99.90
27890;DHT22;15238;49.082;9.102;2022-11-02T05:52:39;9.80;99.90
27890;DHT22;15238;49.082;9.102;2022-11-02T05:54:39;9.90;99.90
27890;DHT22;15238;49.082;9.102;2022-11-02T05:56:40;10.00;99.90
27890;DHT22;15238;49.082;9.102;2022-11-02T05:58:40;10.10;99.90
27890;DHT22;15238;49.082;9.102;2022-11-02T06:00:41;10.10;99.90
27890;DHT22;15238;49.082;9.102;2022-11-02T06:02:41;10.10;99.90
27890;DHT22;15238;49.082;9.102;2022-11-02T06:04:42;10.20;99.90
27890;DHT22;15238;49.082;9.102;2022-11-02T06:06:42;10.20;99.90
27890;DHT22;15238;49.082;9.102;2022-11-02T06:08:43;10.20;99.90
27890;DHT22;15238;49.082;9.102;2022-11-02T06:10:43;10.20;99.90
27890;DHT22;15238;49.082;9.102;2022-11-02T06:12:44;10.20;99.90
27890;DHT22;15238;49.082;9.102;2022-11-02T06:14:45;10.30;99.90
27890;DHT22;15238;49.082;9.102;2022-11-02T06:16:45;10.20;99.90
27890;DHT22;15238;49.082;9.102;2022-11-02T06:18:46;10.30;99.90
27890;DHT22;15238;49.082;9.102;2022-11-02T06:20:46;10.30;99.90
27890;DHT22;15238;49.082;9.102;2022-11-02T06:22:47;10.40;99.90
27890;DHT22;15238;49.082;9.102;2022-11-02T06:24:48;10.40;99.90
27890;DHT22;15238;49.082;9.102;2022-11-02T06:26:48;10.40;99.90
27890;DHT22;15238;49.082;9.102;2022-11-02T06:28:49;10.40;99.90
27890;DHT22;15238;49.082;9.102;2022-11-02T06:30:50;10.40;99.90
27890;DHT22;15238;49.082;9.102;2022-11-02T06:32:52;10.50;99.90
27890;DHT22;15238;49.082;9.102;2022-11-02T06:34:53;10.60;99.90
27890;DHT22;15238;49.082;9.102;2022-11-02T06:36:53;10.60;99.90
27890;DHT22;15238;49.082;9.102;2022-11-02T06:38:54;10.60;99.90
27890;DHT22;15238;49.082;9.102;2022-11-02T06:40:56;10.60;99.90
27890;DHT22;15238;49.082;9.102;2022-11-02T06:42:57;10.60;99.90
27890;DHT22;15238;49.082;9.102;2022-11-02T06:44:58;10.70;99.90
27890;DHT22;15238;49.082;9.102;2022-11-02T06:47:01;10.60;99.90
27890;DHT22;15238;49.082;9.102;2022-11-02T06:49:02;10.70;99.90
27890;DHT22;15238;49.082;9.102;2022-11-02T06:51:04;10.70;99.90
27890;DHT22;15238;49.082;9.102;2022-11-02T06:53:04;10.70;99.90
27890;DHT22;15238;49.082;9.102;2022-11-02T06:55:05;10.80;99.90
27890;DHT22;15238;49.082;9.102;2022-11-02T06:57:06;10.80;99.90
27890;DHT22;15238;49.082;9.102;2022-11-02T06:59:06;10.80;99.90
27890;DHT22;15238;49.082;9.102;2022-11-02T07:01:07;10.90;99.90
27890;DHT22;15238;49.082;9.102;2022-11-02T07:03:09;10.90;99.90
27890;DHT22;15238;49.082;9.102;2022-11-02T07:05:10;10.90;99.90
27890;DHT22;15238;49.082;9.102;2022-11-02T07:07:11;10.90;99.90
27890;DHT22;15238;49.082;9.102;2022-11-02T07:09:11;10.90;99.90
27890;DHT22;15238;49.082;9.102;2022-11-02T07:11:13;10.90;99.90
27890;DHT22;15238;49.082;9.102;2022-11-02T07:13:14;11.00;99.90
27890;DHT22;15238;49.082;9.102;2022-11-02T07:15:15;11.00;99.90
27890;DHT22;15238;49.082;9.102;2022-11-02T07:17:15;11.10;99.90
27890;DHT22;15238;49.082;9.102;2022-11-02T07:19:16;11.10;99.90
27890;DHT22;15238;49.082;9.102;2022-11-02T07:21:16;11.10;99.90
27890;DHT22;15238;49.082;9.102;2022-11-02T07:23:17;11.20;99.90
27890;DHT22;15238;49.082;9.102;2022-11-02T07:25:17;11.20;99.90
27890;DHT22;15238;49.082;9.102;2022-11-02T07:27:18;11.30;99.90
27890;DHT22;15238;49.082;9.102;2022-11-02T07:29:20;11.40;99.90
27890;DHT22;15238;49.082;9.102;2022-11-02T07:31:20;11.50;99.90
27890;DHT22;15238;49.082;9.102;2022-11-02T07:33:21;11.60;99.90
27890;DHT22;15238;49.082;9.102;2022-11-02T07:35:21;11.70;99.90
27890;DHT22;15238;49.082;9.102;2022-11-02T07:37:22;11.70;99.90
27890;DHT22;15238;49.082;9.102;2022-11-02T07:39:22;11.80;99.90
27890;DHT22;15238;49.082;9.102;2022-11-02T07:41:23;11.90;99.90
27890;DHT22;15238;49.082;9.102;2022-11-02T07:43:24;11.90;99.90
27890;DHT22;15238;49.082;9.102;2022-11-02T07:45:24;11.90;99.90
27890;DHT22;15238;49.082;9.102;2022-11-02T07:47:25;11.90;99.90
27890;DHT22;15238;49.082;9.102;2022-11-02T07:49:26;12.00;99.90
27890;DHT22;15238;49.082;9.102;2022-11-02T07:51:26;12.00;99.90
27890;DHT22;15238;49.082;9.102;2022-11-02T07:53:27;12.00;99.90
27890;DHT22;15238;49.082;9.102;2022-11-02T07:55:29;12.10;99.90
27890;DHT22;15238;49.082;9.102;2022-11-02T07:57:29;12.10;99.90
27890;DHT22;15238;49.082;9.102;2022-11-02T07:59:30;12.10;99.90
27890;DHT22;15238;49.082;9.102;2022-11-02T08:01:30;12.20;99.90
27890;DHT22;15238;49.082;9.102;2022-11-02T08:03:31;12.20;99.90
27890;DHT22;15238;49.082;9.102;2022-11-02T08:05:37;12.20;99.90
27890;DHT22;15238;49.082;9.102;2022-11-02T08:07:38;12.30;99.90
27890;DHT22;15238;49.082;9.102;2022-11-02T08:09:38;12.30;99.90
27890;DHT22;15238;49.082;9.102;2022-11-02T08:11:39;12.30;99.90
27890;DHT22;15238;49.082;9.102;2022-11-02T08:13:40;12.40;99.90
27890;DHT22;15238;49.082;9.102;2022-11-02T08:15:40;12.40;99.90
27890;DHT22;15238;49.082;9.102;2022-11-02T08:17:41;12.40;99.90
27890;DHT22;15238;49.082;9.102;2022-11-02T08:19:42;12.40;99.90
27890;DHT22;15238;49.082;9.102;2022-11-02T08:21:42;12.40;99.90
27890;DHT22;15238;49.082;9.102;2022-11-02T08:23:43;12.40;99.90
27890;DHT22;15238;49.082;9.102;2022-11-02T08:25:46;12.40;99.90
27890;DHT22;15238;49.082;9.102;2022-11-02T08:27:46;12.50;99.90
27890;DHT22;15238;49.082;9.102;2022-11-02T08:29:47;12.50;99.90
27890;DHT22;15238;49.082;9.102;2022-11-02T08:31:47;12.50;99.90
27890;DHT22;15238;49.082;9.102;2022-11-02T08:33:48;12.50;99.90
27890;DHT22;15238;49.082;9.102;2022-11-02T08:35:49;12.60;99.90
27890;DHT22;15238;49.082;9.102;2022-11-02T08:37:54;12.60;99.90
27890;DHT22;15238;49.082;9.102;2022-11-02T08:39:54;12.60;99.90
27890;DHT22;15238;49.082;9.102;2022-11-02T08:41:55;12.60;99.90
27890;DHT22;15238;49.082;9.102;2022-11-02T08:43:55;12.60;99.90
27890;DHT22;15238;49.082;9.102;2022-11-02T08:45:58;12.70;99.90
27890;DHT22;15238;49.082;9.102;2022-11-02T08:47:59;12.70;99.90
27890;DHT22;15238;49.082;9.102;2022-11-02T08:49:59;12.70;99.90
27890;DHT22;15238;49.082;9.102;2022-11-02T08:52:00;12.70;99.90
27890;DHT22;15238;49.082;9.102;2022-11-02T08:54:00;12.80;99.90
27890;DHT22;15238;49.082;9.102;2022-11-02T08:56:01;12.80;99.90
27890;DHT22;15238;49.082;9.102;2022-11-02T08:58:01;12.80;99.90
27890;DHT22;15238;49.082;9.102;2022-11-02T09:00:02;12.90;99.90
27890;DHT22;15238;49.082;9.102;2022-11-02T09:02:03;12.90;99.90
27890;DHT22;15238;49.082;9.102;2022-11-02T09:04:03;12.90;99.90
27890;DHT22;15238;49.082;9.102;2022-11-02T09:06:04;13.00;99.90
27890;DHT22;15238;49.082;9.102;2022-11-02T09:08:06;13.00;99.90
27890;DHT22;15238;49.082;9.102;2022-11-02T09:10:08;13.00;99.90
27890;DHT22;15238;49.082;9.102;2022-11-02T09:12:08;13.10;99.90
27890;DHT22;15238;49.082;9.102;2022-11-02T09:14:09;13.10;99.90
27890;DHT22;15238;49.082;9.102;2022-11-02T09:16:09;13.10;99.90
27890;DHT22;15238;49.082;9.102;2022-11-02T09:18:10;13.10;99.90
27890;DHT22;15238;49.082;9.102;2022-11-02T09:20:10;13.20;99.90
27890;DHT22;15238;49.082;9.102;2022-11-02T09:22:11;13.20;99.90
27890;DHT22;15238;49.082;9.102;2022-11-02T09:24:11;13.20;99.90
27890;DHT22;15238;49.082;9.102;2022-11-02T09:26:12;13.20;99.90
27890;DHT22;15238;49.082;9.102;2022-11-02T09:28:13;13.20;99.90
27890;DHT22;15238;49.082;9.102;2022-11-02T09:30:14;13.20;99.90
27890;DHT22;15238;49.082;9.102;2022-11-02T09:32:15;13.20;99.90
27890;DHT22;15238;49.082;9.102;2022-11-02T09:34:15;13.20;99.90
27890;DHT22;15238;49.082;9.102;2022-11-02T09:36:16;13.20;99.90
27890;DHT22;15238;49.082;9.102;2022-11-02T09:38:17;13.20;99.90
27890;DHT22;15238;49.082;9.102;2022-11-02T09:40:23;13.20;99.90
27890;DHT22;15238;49.082;9.102;2022-11-02T09:42:57;13.20;99.90
27890;DHT22;15238;49.082;9.102;2022-11-02T09:45:06;13.20;99.90
27890;DHT22;15238;49.082;9.102;2022-11-02T09:47:10;13.20;99.90
27890;DHT22;15238;49.082;9.102;2022-11-02T09:49:15;13.20;99.90
27890;DHT22;15238;49.082;9.102;2022-11-02T09:51:33;13.30;99.90
27890;DHT22;15238;49.082;9.102;2022-11-02T09:53:55;13.20;99.90
27890;DHT22;15238;49.082;9.102;2022-11-02T09:55:59;13.10;99.90
27890;DHT22;15238;49.082;9.102;2022-11-02T09:58:05;13.20;99.90
27890;DHT22;15238;49.082;9.102;2022-11-02T10:00:12;13.20;99.90
27890;DHT22;15238;49.082;9.102;2022-11-02T10:02:39;13.10;99.90
27890;DHT22;15238;49.082;9.102;2022-11-02T10:05:02;13.10;99.90
27890;DHT22;15238;49.082;9.102;2022-11-02T10:07:28;13.00;99.90
27890;DHT22;15238;49.082;9.102;2022-11-02T10:09:42;13.10;99.90
27890;DHT22;15238;49.082;9.102;2022-11-02T10:12:07;13.10;99.90
27890;DHT22;15238;49.082;9.102;2022-11-02T10:14:21;13.10;99.90
27890;DHT22;15238;49.082;9.102;2022-11-02T10:16:29;13.10;99.90
27890;DHT22;15238;49.082;9.102;2022-11-02T10:18:32;13.20;99.90
27890;DHT22;15238;49.082;9.102;2022-11-02T10:20:43;13.20;99.90
27890;DHT22;15238;49.082;9.102;2022-11-02T10:22:44;13.20;99.90
27890;DHT22;15238;49.082;9.102;2022-11-02T10:24:47;13.30;99.90
27890;DHT22;15238;49.082;9.102;2022-11-02T10:26:50;13.40;99.90
27890;DHT22;15238;49.082;9.102;2022-11-02T10:29:00;13.40;99.90
27890;DHT22;15238;49.082;9.102;2022-11-02T10:31:02;13.50;99.90
27890;DHT22;15238;49.082;9.102;2022-11-02T10:33:11;13.60;99.90
27890;DHT22;15238;49.082;9.102;2022-11-02T10:42:26;13.80;99.90
27890;DHT22;15238;49.082;9.102;2022-11-02T10:47:36;13.80;99.90
27890;DHT22;15238;49.082;9.102;2022-11-02T10:52:13;13.50;99.90
27890;DHT22;15238;49.082;9.102;2022-11-02T10:56:30;13.60;99.90
27890;DHT22;15238;49.082;9.102;2022-11-02T10:58:32;13.70;99.90
27890;DHT22;15238;49.082;9.102;2022-11-02T11:00:35;13.80;99.90
27890;DHT22;15238;49.082;9.102;2022-11-02T11:02:36;13.90;99.90
27890;DHT22;15238;49.082;9.102;2022-11-02T11:04:36;14.10;99.90
27890;DHT22;15238;49.082;9.102;2022-11-02T11:06:39;14.10;99.90
27890;DHT22;15238;49.082;9.102;2022-11-02T11:08:42;14.00;99.90
27890;DHT22;15238;49.082;9.102;2022-11-02T11:10:43;14.00;99.90
27890;DHT22;15238;49.082;9.102;2022-11-02T11:12:45;14.00;99.90
27890;DHT22;15238;49.082;9.102;2022-11-02T11:15:00;14.00;99.90
27890;DHT22;15238;49.082;9.102;2022-11-02T11:17:01;14.10;99.90
27890;DHT22;15238;49.082;9.102;2022-11-02T11:19:22;14.10;99.90
27890;DHT22;15238;49.082;9.102;2022-11-02T11:21:37;14.20;99.90
27890;DHT22;15238;49.082;9.102;2022-11-02T11:23:38;14.30;99.90
27890;DHT22;15238;49.082;9.102;2022-11-02T11:25:39;14.40;99.90
27890;DHT22;15238;49.082;9.102;2022-11-02T11:27:48;14.40;99.90
27890;DHT22;15238;49.082;9.102;2022-11-02T11:29:53;14.40;99.90
27890;DHT22;15238;49.082;9.102;2022-11-02T11:31:54;14.30;99.90
27890;DHT22;15238;49.082;9.102;2022-11-02T11:33:56;14.40;99.90
27890;DHT22;15238;49.082;9.102;2022-11-02T11:35:57;14.50;99.90
27890;DHT22;15238;49.082;9.102;2022-11-02T11:38:18;14.50;99.90
27890;DHT22;15238;49.082;9.102;2022-11-02T11:40:20;14.50;99.90
27890;DHT22;15238;49.082;9.102;2022-11-02T11:42:24;14.70;99.90
27890;DHT22;15238;49.082;9.102;2022-11-02T11:44:26;14.80;99.90
27890;DHT22;15238;49.082;9.102;2022-11-02T11:46:45;15.00;99.90
27890;DHT22;15238;49.082;9.102;2022-11-02T11:48:48;15.00;99.90
27890;DHT22;15238;49.082;9.102;2022-11-02T11:50:49;15.10;99.90
27890;DHT22;15238;49.082;9.102;2022-11-02T11:53:17;15.10;99.90
27890;DHT22;15238;49.082;9.102;2022-11-02T11:55:24;15.20;99.90
27890;DHT22;15238;49.082;9.102;2022-11-02T11:57:33;15.20;99.90
27890;DHT22;15238;49.082;9.102;2022-11-02T12:01:43;15.10;99.90
27890;DHT22;15238;49.082;9.102;2022-11-02T12:03:54;15.20;99.90
27890;DHT22;15238;49.082;9.102;2022-11-02T12:06:05;15.20;99.90
27890;DHT22;15238;49.082;9.102;2022-11-02T12:08:45;15.20;99.90
27890;DHT22;15238;49.082;9.102;2022-11-02T12:13:35;15.10;99.90
27890;DHT22;15238;49.082;9.102;2022-11-02T12:18:04;15.20;99.90
27890;DHT22;15238;49.082;9.102;2022-11-02T12:23:07;15.00;99.90
27890;DHT22;15238;49.082;9.102;2022-11-02T12:25:24;15.00;99.90
27890;DHT22;15238;49.082;9.102;2022-11-02T12:34:25;14.90;99.90
27890;DHT22;15238;49.082;9.102;2022-11-02T12:36:45;14.70;99.90
27890;DHT22;15238;49.082;9.102;2022-11-02T12:41:06;14.80;99.90
27890;DHT22;15238;49.082;9.102;2022-11-02T12:48:35;14.80;99.90
27890;DHT22;15238;49.082;9.102;2022-11-02T12:50:57;14.80;99.90
27890;DHT22;15238;49.082;9.102;2022-11-02T12:55:43;14.70;99.90
27890;DHT22;15238;49.082;9.102;2022-11-02T12:57:45;14.80;99.90
27890;DHT22;15238;49.082;9.102;2022-11-02T12:59:51;14.80;99.90
27890;DHT22;15238;49.082;9.102;2022-11-02T13:01:57;14.90;99.90
27890;DHT22;15238;49.082;9.102;2022-11-02T13:04:19;14.90;99.90
27890;DHT22;15238;49.082;9.102;2022-11-02T13:06:25;14.90;99.90
27890;DHT22;15238;49.082;9.102;2022-11-02T13:08:51;15.00;99.90
27890;DHT22;15238;49.082;9.102;2022-11-02T13:10:57;15.10;99.90
27890;DHT22;15238;49.082;9.102;2022-11-02T13:13:02;15.00;99.90
27890;DHT22;15238;49.082;9.102;2022-11-02T13:15:04;15.00;99.90
27890;DHT22;15238;49.082;9.102;2022-11-02T13:17:20;15.00;99.90
27890;DHT22;15238;49.082;9.102;2022-11-02T13:19:45;15.00;99.90
27890;DHT22;15238;49.082;9.102;2022-11-02T13:21:51;15.10;99.90
27890;DHT22;15238;49.082;9.102;2022-11-02T13:23:56;15.00;99.90
27890;DHT22;15238;49.082;9.102;2022-11-02T13:26:02;14.90;99.90
27890;DHT22;15238;49.082;9.102;2022-11-02T13:28:33;14.90;99.90
27890;DHT22;15238;49.082;9.102;2022-11-02T13:30:35;14.80;99.90
27890;DHT22;15238;49.082;9.102;2022-11-02T13:32:40;14.90;99.90
27890;DHT22;15238;49.082;9.102;2022-11-02T13:34:44;14.90;99.90
27890;DHT22;15238;49.082;9.102;2022-11-02T13:36:46;15.00;99.90
27890;DHT22;15238;49.082;9.102;2022-11-02T13:39:02;15.00;99.90
27890;DHT22;15238;49.082;9.102;2022-11-02T13:45:59;14.80;99.90
27890;DHT22;15238;49.082;9.102;2022-11-02T13:48:23;14.80;99.90
27890;DHT22;15238;49.082;9.102;2022-11-02T13:50:30;14.80;99.90
27890;DHT22;15238;49.082;9.102;2022-11-02T13:52:48;14.80;99.90
27890;DHT22;15238;49.082;9.102;2022-11-02T13:54:52;14.70;99.90
27890;DHT22;15238;49.082;9.102;2022-11-02T13:56:56;14.70;99.90
27890;DHT22;15238;49.082;9.102;2022-11-02T13:59:03;14.70;99.90
27890;DHT22;15238;49.082;9.102;2022-11-02T14:01:07;14.80;99.90
27890;DHT22;15238;49.082;9.102;2022-11-02T14:03:15;14.80;99.90
27890;DHT22;15238;49.082;9.102;2022-11-02T14:05:28;14.80;99.90
27890;DHT22;15238;49.082;9.102;2022-11-02T14:07:34;14.70;99.90
27890;DHT22;15238;49.082;9.102;2022-11-02T14:09:41;14.80;99.90
27890;DHT22;15238;49.082;9.102;2022-11-02T14:11:45;14.80;99.90
27890;DHT22;15238;49.082;9.102;2022-11-02T14:15:53;14.80;99.90